Time;durP1;ratioP1;P1;durP2;ratioP2;P2;SDS_P1;SDS_P2;PMS_P1;PMS_P2;Temp;Humidity;BMP_temperature;BMP_pressure;BME280_temperature;BME280_humidity;BME280_pressure;Samples;Min_cycle;Max_cycle;Signal;HPM_P1;HPM_P2
2021/12/06 00:01:32;;;;;;;31.47;16.27;;;;;;;4.33;100.00;61263.13;5092744;28;20498;-77
2021/12/06 00:04:03;;;;;;;30.77;14.87;;;;;;;3.11;100.00;61131.38;5092707;28;20429;-76
2021/12/06 00:06:33;;;;;;;51.27;24.53;;;;;;;4.44;100.00;61279.34;5093053;28;20445;-76
2021/12/06 00:09:06;;;;;;;38.47;19.37;;;;;;;3.87;100.00;61214.72;5092191;28;20450;-78
2021/12/06 00:11:37;;;;;;;30.73;16.07;;;;;;;3.74;100.00;61210.44;5092466;28;20472;-77
2021/12/06 00:14:06;;;;;;;30.17;14.40;;;;;;;4.32;100.00;61261.53;5092157;28;20528;-77
2021/12/06 00:16:33;;;;;;;33.53;15.40;;;;;;;4.21;100.00;61250.34;5090815;28;20546;-75
2021/12/06 00:19:04;;;;;;;36.43;16.67;;;;;;;4.23;100.00;61258.06;5095408;27;20484;-77
2021/12/06 00:21:32;;;;;;;38.50;18.13;;;;;;;2.82;100.00;61108.63;5095054;28;20532;-75
2021/12/06 00:24:01;;;;;;;32.70;15.57;;;;;;;2.72;100.00;61097.50;5092293;28;20437;-78
2021/12/06 00:26:30;;;;;;;25.47;14.53;;;;;;;4.26;100.00;61263.78;5092285;27;20875;-77
2021/12/06 00:29:01;;;;;;;29.13;14.37;;;;;;;3.08;100.00;61133.22;5092124;28;20491;-78
2021/12/06 00:31:33;;;;;;;35.27;16.73;;;;;;;3.83;100.00;61210.47;5091122;28;20449;-78
2021/12/06 00:34:04;;;;;;;36.73;17.07;;;;;;;3.29;100.00;61160.59;5092029;28;20524;-77
2021/12/06 00:36:37;;;;;;;40.60;18.67;;;;;;;4.33;100.00;61267.66;5092006;28;20477;-77
2021/12/06 00:39:12;;;;;;;34.10;16.40;;;;;;;4.29;100.00;61259.41;5091962;28;20422;-79
2021/12/06 00:41:43;;;;;;;35.53;17.67;;;;;;;4.10;100.00;61241.19;5090954;28;20550;-76
2021/12/06 00:46:52;;;;;;;36.03;19.60;;;;;;;2.77;100.00;61100.28;5090630;28;20445;-76
2021/12/06 00:49:20;;;;;;;30.83;15.80;;;;;;;4.12;100.00;61240.78;5091631;27;20533;-76
2021/12/06 00:51:47;;;;;;;31.80;15.80;;;;;;;4.22;100.00;61257.00;5091852;28;20516;-78
2021/12/06 00:54:16;;;;;;;29.97;15.10;;;;;;;4.30;100.00;61259.94;5091873;28;20938;-79
2021/12/06 00:56:44;;;;;;;29.20;14.27;;;;;;;3.96;100.00;61228.81;5091564;28;20489;-78
2021/12/06 00:59:13;;;;;;;31.23;14.17;;;;;;;4.38;100.00;61270.44;5091595;28;20503;-78
2021/12/06 01:01:41;;;;;;;26.10;14.07;;;;;;;3.28;100.00;61157.00;5090966;28;20831;-76
2021/12/06 01:04:09;;;;;;;30.53;14.43;;;;;;;3.07;100.00;61135.22;5091561;28;20438;-77
2021/12/06 01:06:36;;;;;;;27.83;13.77;;;;;;;4.54;100.00;61284.94;5091787;28;20499;-78
2021/12/06 01:09:04;;;;;;;26.53;13.87;;;;;;;4.60;100.00;61294.41;5090339;28;20978;-79
2021/12/06 01:11:34;;;;;;;27.77;13.30;;;;;;;4.63;100.00;61294.53;5090017;28;20474;-77
2021/12/06 01:14:05;;;;;;;28.57;14.20;;;;;;;4.46;100.00;61276.97;5090528;28;20461;-78
2021/12/06 01:16:39;;;;;;;26.50;14.03;;;;;;;4.67;100.00;61301.31;5091447;28;20834;-76
2021/12/06 01:19:07;;;;;;;23.93;13.07;;;;;;;4.68;100.00;61299.84;5090390;28;20437;-77
2021/12/06 01:21:45;;;;;;;27.50;13.90;;;;;;;4.68;100.00;61299.84;5091207;28;20438;-76
2021/12/06 01:24:16;;;;;;;28.20;14.10;;;;;;;3.30;100.00;61154.09;5090280;28;20481;-77
2021/12/06 01:30:00;;;;;;;31.13;14.87;;;;;;;4.85;100.00;61321.00;5087843;28;20473;-78
2021/12/06 01:33:01;;;;;;;29.03;14.57;;;;;;;4.80;100.00;61318.22;5091603;28;20505;-77
2021/12/06 01:40:55;;;;;;;27.53;14.50;;;;;;;4.39;100.00;61271.50;5091715;28;20425;-75
2021/12/06 01:43:30;;;;;;;31.10;13.67;;;;;;;4.80;100.00;61312.63;5091153;28;20442;-77
2021/12/06 01:45:59;;;;;;;29.07;13.87;;;;;;;3.83;100.00;61210.47;5090866;28;20457;-78
2021/12/06 01:48:28;;;;;;;26.90;12.93;;;;;;;4.98;100.00;61334.31;5089871;28;20448;-76
2021/12/06 01:50:59;;;;;;;27.30;14.63;;;;;;;5.06;100.00;61345.38;5091130;28;20583;-76
2021/12/06 01:53:26;;;;;;;27.87;13.60;;;;;;;3.69;100.00;61200.59;5091122;28;20430;-76
2021/12/06 01:55:53;;;;;;;28.97;14.20;;;;;;;5.08;100.00;61344.97;5090789;28;20534;-77
2021/12/06 01:58:25;;;;;;;27.40;14.83;;;;;;;3.88;100.00;61220.81;5091148;28;20456;-78
2021/12/06 02:00:53;;;;;;;30.80;16.23;;;;;;;4.92;100.00;61322.88;5090888;28;20974;-77
2021/12/06 02:03:22;;;;;;;35.67;15.60;;;;;;;5.02;100.00;61341.09;5090782;28;21002;-77
2021/12/06 02:05:52;;;;;;;26.67;15.03;;;;;;;5.02;100.00;61336.59;5091129;28;20514;-75
2021/12/06 02:08:20;;;;;;;37.63;18.40;;;;;;;4.99;100.00;61332.88;5091095;28;20457;-76
2021/12/06 02:10:47;;;;;;;37.13;17.63;;;;;;;4.04;100.00;61235.31;5090812;28;20499;-78
2021/12/06 02:13:15;;;;;;;36.80;19.33;;;;;;;5.02;100.00;61341.09;5093125;28;20991;-77
2021/12/06 02:15:48;;;;;;;35.27;18.77;;;;;;;5.10;100.00;61344.56;5094428;28;21031;-75
2021/12/06 02:18:37;;;;;;;36.57;18.13;;;;;;;5.04;100.00;61340.72;5094866;28;20460;-76
2021/12/06 02:21:24;;;;;;;34.47;18.40;;;;;;;4.97;100.00;61333.25;5094773;28;20430;-77
2021/12/06 02:23:52;;;;;;;46.17;23.90;;;;;;;5.07;100.00;61341.41;5094043;28;20453;-74
2021/12/06 02:26:22;;;;;;;43.43;21.80;;;;;;;4.99;100.00;61332.88;5094578;28;20441;-78
2021/12/06 02:28:49;;;;;;;48.13;23.73;;;;;;;3.59;100.00;61184.41;5095652;27;20833;-75
2021/12/06 02:31:21;;;;;;;46.83;23.47;;;;;;;4.83;100.00;61315.84;5097122;28;21011;-75
2021/12/06 02:33:49;;;;;;;42.83;23.20;;;;;;;5.08;100.00;61342.44;5094168;27;20449;-76
2021/12/06 02:36:21;;;;;;;46.73;23.70;;;;;;;5.17;100.00;61354.56;5093880;28;20493;-76
2021/12/06 02:38:51;;;;;;;43.87;23.43;;;;;;;5.15;100.00;61352.97;5093436;28;20447;-77
2021/12/06 02:41:22;;;;;;;48.10;23.30;;;;;;;5.18;100.00;61355.09;5094512;28;20433;-77
2021/12/06 02:43:54;;;;;;;42.63;23.10;;;;;;;5.17;100.00;61352.03;5094342;28;20456;-76
2021/12/06 02:46:22;;;;;;;46.60;23.27;;;;;;;4.28;100.00;61263.38;5094202;28;20452;-77
2021/12/06 02:48:51;;;;;;;41.97;23.60;;;;;;;3.70;100.00;61204.19;5094449;28;20442;-75
2021/12/06 02:51:21;;;;;;;43.20;22.07;;;;;;;5.04;100.00;61338.19;5093810;28;20441;-77
2021/12/06 02:53:49;;;;;;;39.20;20.83;;;;;;;4.10;100.00;61244.22;5094057;28;20511;-76
2021/12/06 02:56:32;;;;;;;42.70;21.53;;;;;;;4.72;100.00;61306.63;5093580;28;20535;-78
2021/12/06 02:59:01;;;;;;;38.10;21.23;;;;;;;4.29;100.00;61259.41;5092822;28;20936;-76
2021/12/06 03:01:33;;;;;;;43.97;22.00;;;;;;;5.28;100.00;61368.28;5093296;28;20538;-77
2021/12/06 03:04:03;;;;;;;42.20;21.53;;;;;;;5.28;100.00;61366.28;5093969;28;20453;-76
2021/12/06 03:06:35;;;;;;;41.73;22.17;;;;;;;4.65;100.00;61299.19;5093455;28;20502;-76
2021/12/06 03:09:10;;;;;;;44.23;21.93;;;;;;;4.15;100.00;61239.47;5092569;28;20446;-75
2021/12/06 03:11:44;;;;;;;40.40;21.20;;;;;;;5.37;100.00;61373.34;5093610;28;20470;-76
2021/12/06 03:14:23;;;;;;;45.27;20.70;;;;;;;4.05;100.00;61243.94;5094287;28;20819;-77
2021/12/06 03:16:51;;;;;;;40.93;22.53;;;;;;;3.94;100.00;61221.63;5093755;28;21030;-75
2021/12/06 03:19:20;;;;;;;42.73;21.40;;;;;;;5.36;100.00;61372.28;5093522;28;20433;-77
2021/12/06 03:21:54;;;;;;;40.10;21.17;;;;;;;5.45;100.00;61383.88;5093242;28;20987;-77
2021/12/06 03:24:22;;;;;;;40.90;21.93;;;;;;;4.43;100.00;61278.28;5093308;28;20601;-75
2021/12/06 03:26:51;;;;;;;44.20;20.40;;;;;;;5.31;100.00;61372.00;5092154;28;20438;-77
2021/12/06 03:29:19;;;;;;;36.60;19.93;;;;;;;5.39;100.00;61375.47;5092924;28;20453;-73
2021/12/06 03:31:47;;;;;;;35.77;19.67;;;;;;;5.39;100.00;61378.00;5093191;28;20456;-75
2021/12/06 03:34:19;;;;;;;37.83;19.10;;;;;;;3.77;100.00;61203.53;5093229;28;20474;-76
2021/12/06 03:36:49;;;;;;;37.47;19.57;;;;;;;5.42;100.00;61381.19;5093292;28;20489;-76
2021/12/06 03:39:23;;;;;;;34.23;19.30;;;;;;;5.46;100.00;61387.97;5092947;28;20965;-75
2021/12/06 03:41:52;;;;;;;36.40;18.67;;;;;;;4.04;100.00;61235.31;5093336;28;20905;-77
2021/12/06 03:44:20;;;;;;;37.37;18.73;;;;;;;5.33;100.00;61371.09;5092838;28;20982;-78
2021/12/06 03:46:49;;;;;;;35.57;19.33;;;;;;;5.48;100.00;61387.59;5093237;28;20426;-76
2021/12/06 03:49:17;;;;;;;38.30;19.40;;;;;;;4.68;100.00;61299.84;5093043;28;20442;-76
2021/12/06 03:51:46;;;;;;;39.17;19.10;;;;;;;4.63;100.00;61294.53;5092961;28;20478;-76
2021/12/06 03:54:23;;;;;;;36.37;18.67;;;;;;;5.56;100.00;61396.13;5092982;28;20449;-76
2021/12/06 03:56:54;;;;;;;40.03;19.93;;;;;;;5.56;100.00;61396.13;5091468;28;20483;-76
2021/12/06 03:59:23;;;;;;;36.50;19.63;;;;;;;4.66;100.00;61298.25;5092356;28;20460;-76
2021/12/06 04:01:51;;;;;;;37.43;19.70;;;;;;;5.59;100.00;61396.78;5092523;28;20442;-76
2021/12/06 04:04:18;;;;;;;40.37;19.13;;;;;;;4.52;100.00;61282.81;5092084;28;20453;-76
2021/12/06 04:06:45;;;;;;;38.30;20.40;;;;;;;5.02;100.00;61331.00;5092283;28;20438;-75
2021/12/06 04:09:16;;;;;;;39.93;19.97;;;;;;;4.42;100.00;61277.22;5091187;28;20858;-78
2021/12/06 04:11:45;;;;;;;37.03;20.63;;;;;;;5.52;100.00;61388.78;5091858;28;21003;-79
2021/12/06 04:14:12;;;;;;;40.33;21.70;;;;;;;5.57;100.00;61394.66;5092136;28;20446;-76
2021/12/06 04:16:40;;;;;;;44.13;21.80;;;;;;;5.54;100.00;61390.91;5092234;28;21044;-76
2021/12/06 04:19:10;;;;;;;57.97;31.27;;;;;;;5.10;100.00;61344.56;5091160;28;20448;-76
2021/12/06 04:21:39;;;;;;;63.07;32.77;;;;;;;4.95;100.00;61331.13;5092376;27;20537;-77
2021/12/06 04:24:09;;;;;;;50.83;28.47;;;;;;;5.59;100.00;61396.25;5092593;28;20929;-77
2021/12/06 04:26:52;;;;;;;50.67;26.87;;;;;;;5.64;100.00;61404.63;5092461;28;20807;-76
2021/12/06 04:29:19;;;;;;;48.23;25.27;;;;;;;4.49;100.00;61284.69;5091952;28;21038;-77
2021/12/06 04:31:50;;;;;;;44.20;24.37;;;;;;;5.52;100.00;61394.38;5092213;28;20438;-77
2021/12/06 04:34:19;;;;;;;40.37;20.77;;;;;;;4.24;100.00;61253.56;5091889;28;20442;-77
2021/12/06 04:36:48;;;;;;;38.50;20.37;;;;;;;5.06;100.00;61342.84;5091828;28;20551;-78
2021/12/06 04:39:23;;;;;;;33.67;19.17;;;;;;;5.49;100.00;61391.19;5092644;28;20426;-77
2021/12/06 04:41:52;;;;;;;36.73;19.80;;;;;;;5.31;100.00;61366.97;5098396;28;20444;-75
2021/12/06 04:44:19;;;;;;;39.07;20.37;;;;;;;5.35;100.00;61371.22;5092026;28;20510;-78
2021/12/06 04:46:47;;;;;;;42.53;20.93;;;;;;;4.06;100.00;61242.50;5092092;28;20940;-78
2021/12/06 04:49:15;;;;;;;41.93;20.83;;;;;;;3.64;100.00;61195.28;5091591;28;20438;-77
2021/12/06 04:51:48;;;;;;;42.10;21.90;;;;;;;4.08;100.00;61237.06;5091919;28;20445;-77
2021/12/06 04:54:18;;;;;;;45.03;22.40;;;;;;;5.16;100.00;61353.50;5091771;28;20450;-75
2021/12/06 04:56:50;;;;;;;38.40;21.53;;;;;;;5.23;100.00;61363.50;5091681;28;20544;-74
2021/12/06 04:59:26;;;;;;;41.30;22.40;;;;;;;5.23;100.00;61360.97;5091751;28;20515;-76
2021/12/06 05:01:56;;;;;;;41.47;20.47;;;;;;;5.18;100.00;61352.56;5091725;28;20479;-76
2021/12/06 05:04:26;;;;;;;43.70;23.03;;;;;;;5.31;100.00;61366.44;5092000;28;20491;-79
2021/12/06 05:06:58;;;;;;;43.33;22.53;;;;;;;5.09;100.00;61348.56;5091526;28;20430;-75
2021/12/06 05:09:30;;;;;;;47.23;22.83;;;;;;;4.86;100.00;61324.06;5091881;28;20462;-75
2021/12/06 05:11:59;;;;;;;43.73;22.77;;;;;;;5.03;100.00;61337.13;5092266;28;20473;-77
2021/12/06 05:14:29;;;;;;;51.03;24.00;;;;;;;4.96;100.00;61329.66;5091643;28;20441;-76
2021/12/06 05:16:56;;;;;;;44.13;23.37;;;;;;;5.06;100.00;61342.84;5091937;28;20477;-80
2021/12/06 05:19:24;;;;;;;44.60;23.77;;;;;;;3.87;100.00;61219.75;5092322;28;20936;-75
2021/12/06 05:21:55;;;;;;;40.83;22.50;;;;;;;4.88;100.00;61321.69;5093310;28;20434;-77
2021/12/06 05:24:25;;;;;;;45.47;22.50;;;;;;;5.08;100.00;61343.00;5093279;28;20943;-77
2021/12/06 05:26:53;;;;;;;69.17;32.97;;;;;;;5.26;100.00;61369.19;5093482;28;20834;-77
2021/12/06 05:29:26;;;;;;;52.17;26.10;;;;;;;5.00;100.00;61338.97;5092785;28;20590;-78
2021/12/06 05:31:59;;;;;;;40.43;21.80;;;;;;;4.25;100.00;61254.59;5093696;28;20434;-78
2021/12/06 05:34:33;;;;;;;32.50;17.13;;;;;;;4.96;100.00;61334.72;5093824;28;20445;-77
2021/12/06 05:37:06;;;;;;;33.83;18.47;;;;;;;4.98;100.00;61337.38;5092299;28;20480;-77
2021/12/06 05:39:34;;;;;;;34.13;17.23;;;;;;;5.06;100.00;61343.38;5094276;28;20446;-78
2021/12/06 05:42:06;;;;;;;37.33;18.17;;;;;;;5.28;100.00;61366.28;5093507;28;20426;-77
2021/12/06 05:44:38;;;;;;;62.97;27.80;;;;;;;5.17;100.00;61357.09;5094528;28;20465;-78
2021/12/06 05:47:18;;;;;;;56.13;26.50;;;;;;;5.21;100.00;61356.31;5093788;28;20433;-78
2021/12/06 05:49:46;;;;;;;24.30;11.93;;;;;;;5.01;100.00;61340.56;5096162;28;20429;-78
2021/12/06 05:52:18;;;;;;;26.97;14.70;;;;;;;5.02;100.00;61339.13;5095470;28;20452;-76
2021/12/06 05:54:47;;;;;;;27.50;13.77;;;;;;;3.72;100.00;61205.78;5097173;28;20444;-76
2021/12/06 05:57:16;;;;;;;28.00;14.27;;;;;;;4.85;100.00;61323.00;5096981;28;20473;-77
2021/12/06 05:59:44;;;;;;;44.40;23.50;;;;;;;4.78;100.00;61315.53;5097507;28;20436;-77
2021/12/06 06:02:17;;;;;;;29.63;16.47;;;;;;;5.03;100.00;61339.66;5096948;28;20516;-75
2021/12/06 06:04:45;;;;;;;24.10;13.73;;;;;;;5.01;100.00;61335.00;5096134;28;20469;-74
2021/12/06 06:07:12;;;;;;;22.00;12.07;;;;;;;3.77;100.00;61201.56;5094929;28;20441;-76
2021/12/06 06:09:40;;;;;;;21.43;12.67;;;;;;;3.86;100.00;61218.16;5094545;28;20450;-77
2021/12/06 06:12:10;;;;;;;22.67;12.47;;;;;;;4.02;100.00;61232.66;5094248;28;20469;-77
2021/12/06 06:14:37;;;;;;;21.73;12.27;;;;;;;4.28;100.00;61258.34;5094292;28;20886;-78
2021/12/06 06:17:12;;;;;;;33.57;19.23;;;;;;;4.93;100.00;61331.53;5094299;28;21011;-77
2021/12/06 06:19:44;;;;;;;34.37;18.43;;;;;;;5.50;100.00;61386.66;5094637;28;20977;-76
2021/12/06 06:22:12;;;;;;;30.03;16.33;;;;;;;5.19;100.00;61356.16;5094639;28;20445;-77
2021/12/06 06:24:42;;;;;;;25.10;14.23;;;;;;;4.77;100.00;61309.44;5095300;28;20551;-77
2021/12/06 06:27:11;;;;;;;36.20;19.03;;;;;;;6.29;100.00;61470.38;5095269;28;20582;-75
2021/12/06 06:29:41;;;;;;;26.50;14.57;;;;;;;7.06;100.00;61557.59;5095116;27;20992;-75
2021/12/06 06:32:14;;;;;;;23.03;13.00;;;;;;;6.92;100.00;61537.59;5095303;28;20793;-79
2021/12/06 06:34:45;;;;;;;17.50;7.83;;;;;;;7.58;100.00;61608.06;5096481;28;20437;-75
2021/12/06 06:37:31;;;;;;;14.03;8.57;;;;;;;7.18;100.00;61567.34;5094665;28;20472;-76
2021/12/06 06:40:00;;;;;;;14.20;6.83;;;;;;;7.44;100.00;61598.16;5095599;28;20518;-78
2021/12/06 06:42:29;;;;;;;14.43;9.43;;;;;;;7.55;100.00;61607.38;5095195;28;20812;-77
2021/12/06 06:44:58;;;;;;;18.83;10.43;;;;;;;7.13;100.00;61565.06;5094774;28;20446;-77
2021/12/06 06:47:30;;;;;;;15.70;9.73;;;;;;;8.56;100.00;61716.78;5095452;28;20441;-79
2021/12/06 06:50:05;;;;;;;23.83;13.53;;;;;;;8.67;100.00;61723.47;5096434;27;20442;-77
2021/12/06 06:53:02;;;;;;;17.50;10.27;;;;;;;7.43;100.00;61597.09;5097204;28;20452;-77
2021/12/06 06:55:37;;;;;;;15.27;9.03;;;;;;;8.41;100.00;61695.69;5094399;28;21005;-76
2021/12/06 06:58:05;;;;;;;11.87;7.97;;;;;;;7.22;100.00;61574.13;5094331;28;20526;-77
2021/12/06 07:00:37;;;;;;;13.43;8.03;;;;;;;8.22;100.00;61675.34;5094571;28;20449;-77
2021/12/06 07:03:11;;;;;;;12.47;8.30;;;;;;;7.91;100.00;61647.81;5094723;28;20511;-76
2021/12/06 07:05:44;;;;;;;17.57;8.63;;;;;;;7.75;100.00;61622.59;5094362;28;20449;-75
2021/12/06 07:08:14;;;;;;;15.67;9.17;;;;;;;7.63;100.00;61612.84;5094511;28;20467;-75
2021/12/06 07:10:42;;;;;;;15.70;10.00;;;;;;;7.64;100.00;61614.47;5093488;28;20676;-76
2021/12/06 07:13:37;;;;;;;14.27;9.20;;;;;;;7.82;100.00;61632.59;5093990;28;20538;-78
2021/12/06 07:16:05;;;;;;;12.47;7.73;;;;;;;7.81;100.00;61624.47;5094462;28;20452;-76
2021/12/06 07:18:32;;;;;;;16.77;11.50;;;;;;;7.68;100.00;61623.81;5093906;28;20501;-76
2021/12/06 07:21:17;;;;;;;11.63;7.50;;;;;;;7.55;100.00;61604.84;5093990;28;20503;-76
2021/12/06 07:23:48;;;;;;;15.47;9.57;;;;;;;7.47;100.00;61601.38;5093759;28;20453;-78
2021/12/06 07:26:18;;;;;;;15.67;8.93;;;;;;;7.38;100.00;61586.16;5094063;28;20502;-76
2021/12/06 07:28:47;;;;;;;19.83;11.43;;;;;;;7.33;100.00;61581.34;5094746;28;20430;-77
2021/12/06 07:31:23;;;;;;;19.83;11.50;;;;;;;7.31;100.00;61579.22;5095089;28;20457;-77
2021/12/06 07:33:52;;;;;;;14.07;7.80;;;;;;;6.41;100.00;61483.16;5093326;28;20491;-75
2021/12/06 07:36:25;;;;;;;16.93;9.53;;;;;;;6.99;100.00;61549.56;5093751;28;20533;-76
2021/12/06 07:38:54;;;;;;;9.70;5.80;;;;;;;5.96;100.00;61440.75;5093469;28;20490;-78
2021/12/06 07:41:26;;;;;;;10.33;6.97;;;;;;;5.74;100.00;61412.78;5093615;27;20502;-77
2021/12/06 07:43:56;;;;;;;11.87;7.20;;;;;;;6.82;100.00;61527.44;5093322;28;20449;-76
2021/12/06 07:46:23;;;;;;;15.33;8.57;;;;;;;6.70;100.00;61514.13;5092968;28;20441;-78
2021/12/06 07:48:52;;;;;;;13.70;7.90;;;;;;;5.61;100.00;61396.41;5092752;28;20811;-77
2021/12/06 07:51:26;;;;;;;15.23;9.13;;;;;;;7.26;100.00;61573.88;5093213;28;20485;-77
2021/12/06 07:53:54;;;;;;;16.23;9.93;;;;;;;7.45;100.00;61596.69;5093222;28;20815;-77
2021/12/06 07:56:27;;;;;;;11.47;7.00;;;;;;;6.38;100.00;61485.03;5093151;28;20437;-77
2021/12/06 07:58:54;;;;;;;16.30;9.00;;;;;;;7.46;100.00;61600.31;5091790;28;20488;-74
2021/12/06 08:01:21;;;;;;;17.13;9.80;;;;;;;6.33;100.00;61482.22;5092074;28;20429;-76
2021/12/06 08:03:50;;;;;;;13.13;7.93;;;;;;;7.45;100.00;61599.22;5092993;28;20434;-76
2021/12/06 08:09:00;;;;;;;14.53;8.33;;;;;;;7.17;100.00;61564.25;5092396;28;20499;-77
2021/12/06 08:11:27;;;;;;;16.07;9.47;;;;;;;6.49;100.00;61497.31;5090000;28;20472;-76
2021/12/06 08:13:56;;;;;;;13.53;8.33;;;;;;;7.72;100.00;61624.47;5092327;28;20550;-76
2021/12/06 08:16:31;;;;;;;12.17;7.23;;;;;;;6.94;100.00;61537.19;5092193;28;20437;-77
2021/12/06 08:19:00;;;;;;;20.07;10.70;;;;;;;7.73;100.00;61625.53;5090735;28;20856;-79
2021/12/06 08:21:34;;;;;;;16.87;9.47;;;;;;;7.67;100.00;61622.72;5091781;28;20519;-76
2021/12/06 08:24:04;;;;;;;16.93;8.90;;;;;;;7.71;100.00;61625.94;5092188;28;20441;-76
2021/12/06 08:26:41;;;;;;;16.90;10.27;;;;;;;7.76;100.00;61626.19;5092598;28;20418;-77
2021/12/06 08:29:15;;;;;;;41.90;17.20;;;;;;;7.81;100.00;61631.56;5092147;28;20800;-77
2021/12/06 08:31:44;;;;;;;26.33;13.57;;;;;;;7.87;100.00;61643.03;5092297;28;20429;-77
2021/12/06 08:34:15;;;;;;;16.27;10.20;;;;;;;7.16;100.00;61563.22;5090550;28;20438;-76
2021/12/06 08:36:45;;;;;;;16.43;9.60;;;;;;;7.55;100.00;61614.97;5091672;28;20525;-78
2021/12/06 08:39:26;;;;;;;15.13;10.03;;;;;;;8.05;100.00;61659.72;5090308;28;20847;-76
2021/12/06 08:41:58;;;;;;;14.87;9.63;;;;;;;8.07;100.00;61659.84;5091879;28;20476;-75
2021/12/06 08:44:26;;;;;;;17.67;11.40;;;;;;;7.90;100.00;61641.16;5092287;28;20434;-77
2021/12/06 08:46:55;;;;;;;14.47;9.30;;;;;;;8.12;100.00;61664.66;5091613;28;20856;-79
2021/12/06 08:49:38;;;;;;;10.00;6.33;;;;;;;8.34;100.00;61693.81;5091609;28;20441;-78
2021/12/06 08:52:07;;;;;;;9.87;6.23;;;;;;;8.42;100.00;61696.75;5092254;28;20445;-76
2021/12/06 08:54:36;;;;;;;11.70;8.50;;;;;;;8.66;100.00;61719.84;5091845;28;20439;-76
2021/12/06 08:57:04;;;;;;;14.53;8.67;;;;;;;8.40;100.00;61690.06;5091729;28;20523;-78
2021/12/06 08:59:35;;;;;;;10.57;6.67;;;;;;;7.77;100.00;61627.78;5092725;28;20528;-77
2021/12/06 09:04:45;;;;;;;12.67;7.67;;;;;;;8.64;100.00;61722.78;5092123;28;20504;-75
2021/12/06 09:07:18;;;;;;;9.40;5.83;;;;;;;9.18;100.00;61780.00;5089386;28;20467;-77
2021/12/06 09:09:50;;;;;;;7.60;5.00;;;;;;;9.16;100.00;61773.31;5092154;28;20548;-77
2021/12/06 09:12:21;;;;;;;8.13;5.73;;;;;;;8.79;100.00;61741.38;5091222;28;20676;-76
2021/12/06 09:14:49;;;;;;;11.30;5.33;;;;;;;9.28;100.00;61788.69;5091266;28;20479;-77
2021/12/06 09:17:17;;;;;;;12.70;6.40;;;;;;;9.25;100.00;61784.97;5092114;28;20808;-75
2021/12/06 09:19:44;;;;;;;11.77;5.50;;;;;;;8.17;100.00;61670.00;5091579;28;20441;-77
2021/12/06 09:22:13;;;;;;;9.37;5.07;;;;;;;9.68;100.00;61830.44;5091221;28;20469;-75
2021/12/06 09:24:51;;;;;;;14.93;7.27;;;;;;;9.62;100.00;61824.03;5091513;28;20479;-77
2021/12/06 09:27:20;;;;;;;12.03;6.37;;;;;;;9.66;100.00;61828.31;5091405;28;20450;-77
2021/12/06 09:29:49;;;;;;;8.13;5.10;;;;;;;8.65;100.00;61721.34;5091047;28;20902;-78
2021/12/06 09:32:31;;;;;;;8.00;5.23;;;;;;;9.07;100.00;61766.25;5091229;28;20445;-75
2021/12/06 09:35:00;;;;;;;8.77;5.43;;;;;;;9.73;100.00;61835.78;5091275;28;20566;-76
2021/12/06 09:37:29;;;;;;;12.70;5.97;;;;;;;9.88;100.00;61851.84;5090901;28;20477;-76
2021/12/06 09:39:59;;;;;;;12.17;6.30;;;;;;;10.03;100.00;61867.91;5091216;28;20495;-77
2021/12/06 09:42:32;;;;;;;10.63;6.20;;;;;;;8.88;100.00;61748.47;5091411;28;20802;-76
2021/12/06 09:44:59;;;;;;;11.93;6.90;;;;;;;9.78;100.00;61846.22;5090774;28;20199;-77
2021/12/06 09:47:31;;;;;;;12.50;6.47;;;;;;;9.92;100.00;61856.13;5089485;28;20448;-78
2021/12/06 09:50:00;;;;;;;9.93;6.73;;;;;;;9.07;100.00;61771.31;5091193;28;20453;-77
2021/12/06 09:52:27;;;;;;;10.57;6.67;;;;;;;10.17;100.00;61882.91;5090581;28;20490;-77
2021/12/06 09:54:55;;;;;;;12.60;6.80;;;;;;;9.21;100.00;61783.75;5091580;28;20200;-76
2021/12/06 09:57:30;;;;;;;9.47;6.40;;;;;;;9.23;100.00;61783.38;5090604;28;20436;-76
2021/12/06 09:59:59;;;;;;;12.10;7.27;;;;;;;9.38;100.00;61799.41;5092219;28;20199;-76
2021/12/06 10:02:27;;;;;;;17.93;7.53;;;;;;;10.65;100.00;61931.22;5091416;28;20445;-77
2021/12/06 10:04:55;;;;;;;11.83;7.57;;;;;;;10.71;100.00;61940.75;5090620;28;20196;-77
2021/12/06 10:07:31;;;;;;;10.33;6.57;;;;;;;10.69;100.00;61938.59;5091130;28;20207;-78
2021/12/06 10:12:43;;;;;;;13.10;6.87;;;;;;;10.50;100.00;61918.25;5091585;28;20207;-76
2021/12/06 10:15:18;;;;;;;12.70;7.37;;;;;;;10.46;100.00;61911.44;5091296;28;20589;-77
2021/12/06 10:17:51;;;;;;;12.03;7.30;;;;;;;10.25;100.00;61888.94;5090610;28;20226;-77
2021/12/06 10:20:24;;;;;;;14.30;7.20;;;;;;;10.50;100.00;61917.72;5090948;28;20223;-78
2021/12/06 10:22:54;;;;;;;13.67;7.23;;;;;;;10.34;100.00;61903.13;5090545;28;20506;-76
2021/12/06 10:25:23;;;;;;;13.03;7.43;;;;;;;10.49;100.00;61917.19;5090760;28;20287;-77
2021/12/06 10:28:12;;;;;;;11.80;7.67;;;;;;;10.30;100.00;61899.38;5090247;28;20756;-78
2021/12/06 10:30:46;;;;;;;14.43;8.93;;;;;;;10.48;100.00;61916.13;5090992;28;20223;-75
2021/12/06 10:33:16;;;;;;;13.37;8.17;;;;;;;9.40;100.00;61801.00;5092023;28;20526;-78
2021/12/06 10:35:49;;;;;;;17.67;9.33;;;;;;;10.71;100.00;61940.75;5094163;28;20438;-76
2021/12/06 10:38:26;;;;;;;16.67;9.20;;;;;;;10.14;100.00;61880.22;5094237;28;20694;-76
2021/12/06 10:41:08;;;;;;;13.90;8.43;;;;;;;10.79;100.00;61949.31;5094834;28;20475;-77
2021/12/06 10:43:53;;;;;;;14.23;8.40;;;;;;;10.77;100.00;61944.63;5094250;28;20264;-78
2021/12/06 10:46:22;;;;;;;13.53;8.20;;;;;;;10.83;100.00;61951.06;5094192;28;20438;-78
2021/12/06 10:48:52;;;;;;;16.40;8.27;;;;;;;9.79;100.00;61842.22;5094172;28;20510;-77
2021/12/06 10:51:23;;;;;;;12.77;7.53;;;;;;;9.69;100.00;61826.41;5093955;28;20261;-77
2021/12/06 10:53:59;;;;;;;25.57;7.43;;;;;;;9.95;100.00;61859.34;5093868;28;20235;-77
2021/12/06 10:56:41;;;;;;;11.30;7.40;;;;;;;10.51;100.00;61918.78;5093730;28;20196;-77
2021/12/06 10:59:30;;;;;;;13.97;7.63;;;;;;;10.29;100.00;61893.22;5093793;28;20371;-76
2021/12/06 11:02:06;;;;;;;35.80;19.97;;;;;;;9.32;100.00;61792.97;5093831;28;20469;-77
2021/12/06 11:04:35;;;;;;;39.07;19.77;;;;;;;10.20;100.00;61886.66;5093422;28;20210;-77
2021/12/06 11:07:06;;;;;;;19.77;12.70;;;;;;;10.36;100.00;61903.25;5093421;28;20282;-76
2021/12/06 11:09:41;;;;;;;16.23;10.07;;;;;;;10.31;100.00;61897.91;5098853;28;20206;-75
2021/12/06 11:12:19;;;;;;;16.87;7.20;;;;;;;10.37;100.00;61906.34;5096879;28;20287;-79
2021/12/06 11:14:55;;;;;;;12.13;7.27;;;;;;;10.14;100.00;61877.16;5094159;28;20231;-77
2021/12/06 11:17:26;;;;;;;15.50;8.03;;;;;;;8.80;100.00;61739.91;5094144;28;20438;-75
2021/12/06 11:19:54;;;;;;;12.67;7.57;;;;;;;9.17;100.00;61782.03;5093543;28;20564;-78
2021/12/06 11:22:25;;;;;;;16.43;8.37;;;;;;;10.25;100.00;61891.47;5093569;28;20279;-76
2021/12/06 11:24:57;;;;;;;17.17;8.97;;;;;;;10.23;100.00;61889.34;5092897;28;20457;-77
2021/12/06 11:30:18;;;;;;;10.97;6.87;;;;;;;9.93;100.00;61862.28;5093641;28;20851;-79
2021/12/06 11:33:05;;;;;;;15.73;8.00;;;;;;;10.15;100.00;61883.31;5093338;28;20197;-78
2021/12/06 11:38:20;;;;;;;13.43;7.97;;;;;;;10.47;100.00;61915.03;5093039;28;20223;-76
2021/12/06 11:40:50;;;;;;;10.87;7.47;;;;;;;9.42;100.00;61800.06;5093060;28;20473;-76
2021/12/06 11:46:32;;;;;;;11.33;7.73;;;;;;;11.10;100.00;61979.47;5092486;28;20218;-77
2021/12/06 11:49:02;;;;;;;14.97;8.37;;;;;;;11.77;100.00;62053.84;5092893;28;20230;-77
2021/12/06 11:51:29;;;;;;;18.57;8.97;;;;;;;11.01;100.00;61975.44;5093038;28;20203;-78
2021/12/06 11:53:59;;;;;;;14.77;8.73;;;;;;;12.49;100.00;62130.56;5092732;28;20654;-75
2021/12/06 11:56:42;;;;;;;14.83;8.93;;;;;;;12.67;100.00;62149.88;5092165;28;20725;-79
2021/12/06 11:59:21;;;;;;;13.53;7.30;;;;;;;12.73;100.00;62156.34;5092452;28;20234;-79
2021/12/06 12:02:19;;;;;;;16.67;8.63;;;;;;;12.82;100.00;62162.88;5093138;28;20210;-76
2021/12/06 12:05:19;;;;;;;18.70;8.40;;;;;;;12.78;100.00;62160.63;5091959;28;20222;-78
2021/12/06 12:07:58;;;;;;;13.80;7.03;;;;;;;14.25;100.00;62318.56;5092902;28;20515;-77